Meteo Giornale » Osservazioni meteo Messico » Tulancingo
ore: 16:45 - Osservazioni Meteo Tulancingo
Lat. 20° 5' N Lon. 98° 22' W Alt. 2181 metri s.l.m.
31 °C
Nuvoloso
Temp. 24 Ore
24 °C
35 °C
Est/Nord-Est
11.1 Km/h
Dew point 24 °C
Umidità 66 %
Visibilità 11 Km
Il sole sorge alle ore 06:17
Il sole tramonta alle ore 18:48
| Data e Ora | Cielo e Fenomeni | T °C | DP °C | Um. % | Pres. hPa | Vis. km | Vento km/h | |
|---|---|---|---|---|---|---|---|---|
| Oggi h: 16:45 | Nuvoloso | 31 | 24 | 66 | 1014 | 11 | E/NE 11.1 | |
| Oggi h: 15:44 | Nuvoloso | 34 | 23 | 52 | 1014 | 11 | E 27.8 | |
| Oggi h: 14:44 | Poco Nuvoloso | 35 | 24 | 53 | 1014 | 11 | E 25.9 | |
| Oggi h: 13:44 | Nuvoloso | 34 | 24 | 56 | 1014 | 11 | E/SE 24 | |
| Oggi h: 12:43 | Molto Nuvoloso | 35 | 24 | 53 | 1014 | 11 | E/NE 13 | |
| Oggi h: 11:43 | Molto Nuvoloso | 34 | 25 | 59 | 1015 | 11 | N 9.3 | |
| Oggi h: 10:41 | Nuvoloso | 33 | 26 | 66 | 1016 | 11 | N 5.5 | |
| Oggi h: 09:42 | Molto Nuvoloso | 32 | 27 | 74 | 1017 | 11 | N 5.5 | |
| Oggi h: 08:42 | Nuvoloso | 30 | 28 | 89 | 1017 | 11 | O 9.3 | |
| Oggi h: 07:41 | Nuvoloso | 30 | 28 | 89 | 1017 | 11 | N 0 | |
| Oggi h: 06:43 | Sereno | 26 | 26 | 100 | 1016 | 10 | N 0 | |
| Oggi h: 05:43 | Poco Nuvoloso | 24 | 24 | 100 | 1016 | 10 | N 0 | |
| Oggi h: 04:40 | Sereno | 24 | 24 | 100 | 1015 | 10 | N 0 | |
| Oggi h: 03:40 | Sereno | 24 | 24 | 100 | 1016 | 10 | N 0 | |
| Oggi h: 02:40 | Sereno | 25 | 24 | 94 | 1017 | 10 | N 0 | |
| Oggi h: 01:40 | Sereno | 25 | 24 | 94 | 1017 | 10 | N 0 | |
| Oggi h: 00:40 | Sereno | 26 | 24 | 88 | 1017 | 10 | N 0 | |
| Ieri h: 23:40 | Sereno | 26 | 26 | 100 | 1017 | 10 | N 0 | |
| Ieri h: 22:40 | Sereno | 27 | 25 | 88 | 1017 | 10 | N 0 | |
| Ieri h: 21:40 | Sereno | 27 | 26 | 94 | 1016 | 10 | N 0 | |
| Ieri h: 20:40 | Sereno | 28 | 26 | 88 | 1016 | 10 | N 0 | |
| Ieri h: 19:49 | Sereno | 29 | 26 | 83 | 1016 | 10 | N 0 | |
| Ieri h: 18:41 | Poco Nuvoloso | 29 | 26 | 83 | 1015 | 10 | N 0 | |
| Ieri h: 17:43 | Molto Nuvoloso | 30 | 25 | 74 | 1014 | 11 | E/NE 13 | |



